Dalton, Texas
Current Conditions -  °F | °C
As of 3:55 AM on Friday 31 Oct 2014 (Local Time) from KOSA Reporting Station
Clear Clear  
Wind Chill: 12°   Ceiling: Unl
Heat Index: 12°   Visibility: 10mi
Dew Point:   Wind: 3mph
Humidity: 77%   Direction: 320°NW
Pressure: 30.15"   Gusts: NA
Location:  33.2006°N, 94.6977°W
Report Text: KOSA 310855Z AUTO 32003KT 10SM CLR 12/08 A3015 RMK AO1 T01210081
Loading
Personal Weather Stations






























Interactive Weather Map
Tropical Storm Tracking
New forecast layout! Learn more

10-Day Weather Forecast

Advertisements
Track Severe Weather on mobile